Etusivu
METAR-TAF:

METAR-TAF

Lentoasemat :

Gifu, Japani

Leveyspiiri: 35-23N, Pituuspiiri: 136-52E, korkeus merenpinnasta: 39 m

Tämänhetkinen sää

Tämä raportti tehtiin 2 tuntia ja 48 minuuttia sitten, kello 09.21 UTC
Tuuli 2 kn eri suunnista
Lämpötila 14°C
Kosteus 77%
Ilmanpaine 1016 hPa
Näkyvyys 10 km tai enemmän
Muutamia pilviä 3000 ft:n korkeudessa
Hajonneita pilviä 15000 ft:n korkeudessa
Hajonneita pilviä

METAR: RJNG 130921Z VRB02KT 9999 FEW030 BKN150 BKN/// 14/10 Q1016 RMK 1CU030 5AC150 A3002

Aika: 21:09 (12:09 UTC)


TAF: puuttuu

Säähavainnot ja -ennusteet yli 4000 lentoasemalta (METAR- ja TAF-raportit).

Käytössä olevat sääasemat on merkitty karttaan keltaisilla ja punaisilla pisteillä.

Aseta hiiri pisteen päälle nähdäksesi sääaseman nimen.

Klikkaa sitten nähdäksesi säähavainnot ja -ennusteet.

Kartan vaihtaminen: klikkaa mustalla rastilla varustettuja vihreitä pisteitä, niin voit zoomata sisään; viivalla varustettua vihreää pistettä, niin voit zoomata ulos tai vihreitä nuolia, niin pääset viereisille kartoille.


METAR-TAF: